Time,TemperatureF,DewpointF,PressureIn,WindDirection,WindDirectionDegrees,WindSpeedMPH,WindSpeedGustMPH,Humidity,HourlyPrecipIn,Conditions,Clouds,dailyrainin,SoftwareType,DateUTC
2013-03-09 00:01:00,40.1,28.5,30.30,NE,35,0.0,2.0,63,0.00,CLR,,0.00,WeatherDisplay:10.37,2013-03-09 05:01:00,
2013-03-09 00:10:00,40.1,28.5,30.29,NNE,33,0.0,2.0,63,0.00,CLR,,0.00,WeatherDisplay:10.37,2013-03-09 05:10:00,
2013-03-09 00:20:00,40.1,28.5,30.29,NNE,33,0.0,1.0,63,0.00,CLR,,0.00,WeatherDisplay:10.37,2013-03-09 05:20:00,
2013-03-09 00:31:00,40.1,28.1,30.29,NNE,27,0.0,2.0,62,0.00,CLR,,0.00,WeatherDisplay:10.37,2013-03-09 05:31:00,
2013-03-09 00:40:00,39.8,28.2,30.29,North,350,0.0,1.0,63,0.00,CLR,,0.00,WeatherDisplay:10.37,2013-03-09 05:40:00,
2013-03-09 00:50:00,39.9,28.3,30.29,North,350,0.0,1.0,63,0.00,CLR,,0.00,WeatherDisplay:10.37,2013-03-09 05:50:00,
2013-03-09 01:01:00,39.9,28.3,30.28,North,350,0.0,1.0,63,0.00,CLR,,0.00,WeatherDisplay:10.37,2013-03-09 06:01:00,
2013-03-09 01:10:00,39.6,28.4,30.28,North,350,0.0,0.0,64,0.00,CLR,,0.00,WeatherDisplay:10.37,2013-03-09 06:10:00,
2013-03-09 01:20:00,39.1,28.3,30.28,North,350,0.0,0.0,65,0.00,CLR,,0.00,WeatherDisplay:10.37,2013-03-09 06:20:00,
2013-03-09 01:31:00,38.7,28.3,30.28,North,350,0.0,1.0,66,0.00,CLR,,0.00,WeatherDisplay:10.37,2013-03-09 06:31:00,
2013-03-09 01:40:00,38.3,28.3,30.28,North,354,0.0,2.0,67,0.00,CLR,,0.00,WeatherDisplay:10.37,2013-03-09 06:40:00,
2013-03-09 01:50:00,38.2,28.9,30.28,North,355,0.0,1.0,69,0.00,SCT,,0.00,WeatherDisplay:10.37,2013-03-09 06:50:00,
2013-03-09 02:01:00,37.9,28.6,30.28,North,355,0.0,1.0,69,0.00,SCT,,0.00,WeatherDisplay:10.37,2013-03-09 07:01:00,
2013-03-09 02:10:00,37.9,28.6,30.28,North,355,0.0,1.0,69,0.00,CLR,,0.00,WeatherDisplay:10.37,2013-03-09 07:10:00,
2013-03-09 02:20:00,38.6,28.6,30.28,North,355,0.0,2.0,67,0.00,CLR,,0.00,WeatherDisplay:10.37,2013-03-09 07:20:00,
2013-03-09 02:31:00,39.9,28.7,30.28,NE,35,0.0,3.0,64,0.00,CLR,,0.00,WeatherDisplay:10.37,2013-03-09 07:31:00,
2013-03-09 02:40:00,39.7,28.8,30.27,ENE,63,0.0,2.0,65,0.00,CLR,,0.00,WeatherDisplay:10.37,2013-03-09 07:40:00,
2013-03-09 02:50:00,39.0,29.3,30.27,ENE,63,0.0,1.0,68,0.00,CLR,,0.00,WeatherDisplay:10.37,2013-03-09 07:50:00,
2013-03-09 03:01:00,38.9,29.2,30.27,ENE,63,0.0,1.0,68,0.00,CLR,,0.00,WeatherDisplay:10.37,2013-03-09 08:01:00,
2013-03-09 03:10:00,38.6,28.9,30.27,ENE,63,0.0,1.0,68,0.00,CLR,,0.00,WeatherDisplay:10.37,2013-03-09 08:10:00,
2013-03-09 03:20:00,38.3,28.7,30.27,ENE,63,0.0,1.0,68,0.00,CLR,,0.00,WeatherDisplay:10.37,2013-03-09 08:20:00,
2013-03-09 03:31:00,38.1,28.8,30.27,ENE,63,0.0,1.0,69,0.00,CLR,,0.00,WeatherDisplay:10.37,2013-03-09 08:31:00,
2013-03-09 03:40:00,37.5,29.3,30.26,ENE,63,0.0,1.0,72,0.00,CLR,,0.00,WeatherDisplay:10.37,2013-03-09 08:40:00,
2013-03-09 03:50:00,37.0,28.8,30.26,ENE,63,0.0,0.0,72,0.00,CLR,,0.00,WeatherDisplay:10.37,2013-03-09 08:50:00,
2013-03-09 04:01:00,36.5,28.7,30.26,ENE,63,0.0,0.0,73,0.00,CLR,,0.00,WeatherDisplay:10.37,2013-03-09 09:01:00,
2013-03-09 04:10:00,36.1,28.9,30.25,ENE,63,0.0,0.0,75,0.00,CLR,,0.00,WeatherDisplay:10.37,2013-03-09 09:10:00,
2013-03-09 04:20:00,35.7,28.8,30.26,ENE,63,0.0,1.0,76,0.00,CLR,,0.00,WeatherDisplay:10.37,2013-03-09 09:20:00,
2013-03-09 04:31:00,35.6,29.1,30.26,ENE,63,0.0,1.0,77,0.00,CLR,,0.00,WeatherDisplay:10.37,2013-03-09 09:31:00,
2013-03-09 04:40:00,35.2,28.7,30.26,ENE,63,0.0,0.0,77,0.00,CLR,,0.00,WeatherDisplay:10.37,2013-03-09 09:40:00,
2013-03-09 04:50:00,34.9,28.7,30.26,ENE,63,0.0,1.0,78,0.00,CLR,,0.00,WeatherDisplay:10.37,2013-03-09 09:50:00,
2013-03-09 05:01:00,34.6,28.8,30.27,ENE,63,0.0,0.0,79,0.00,CLR,,0.00,WeatherDisplay:10.37,2013-03-09 10:01:00,
2013-03-09 05:10:00,34.3,29.1,30.26,ENE,63,0.0,1.0,81,0.00,CLR,,0.00,WeatherDisplay:10.37,2013-03-09 10:10:00,
2013-03-09 05:20:00,34.4,28.9,30.27,ENE,63,0.0,0.0,80,0.00,CLR,,0.00,WeatherDisplay:10.37,2013-03-09 10:20:00,
2013-03-09 05:31:00,34.3,29.1,30.28,ENE,63,0.0,2.0,81,0.00,CLR,,0.00,WeatherDisplay:10.37,2013-03-09 10:31:00,
2013-03-09 05:40:00,34.2,29.0,30.29,ENE,63,0.0,1.0,81,0.00,CLR,,0.00,WeatherDisplay:10.37,2013-03-09 10:40:00,
2013-03-09 05:50:00,34.1,29.2,30.29,ENE,63,0.0,1.0,82,0.00,CLR,,0.00,WeatherDisplay:10.37,2013-03-09 10:50:00,
2013-03-09 06:01:00,33.9,29.0,30.30,ENE,63,0.0,0.0,82,0.00,CLR,,0.00,WeatherDisplay:10.37,2013-03-09 11:01:00,
2013-03-09 06:10:00,33.9,29.3,30.30,ENE,63,0.0,0.0,83,0.00,CLR,,0.00,WeatherDisplay:10.37,2013-03-09 11:10:00,
2013-03-09 06:20:00,33.9,29.3,30.30,ENE,63,0.0,1.0,83,0.00,CLR,,0.00,WeatherDisplay:10.37,2013-03-09 11:20:00,
2013-03-09 06:31:00,34.1,29.8,30.30,ENE,63,0.0,0.0,84,0.00,CLR,,0.00,WeatherDisplay:10.37,2013-03-09 11:31:00,
2013-03-09 06:40:00,34.4,29.8,30.30,ENE,63,0.0,1.0,83,0.00,CLR,,0.00,WeatherDisplay:10.37,2013-03-09 11:40:00,
2013-03-09 06:50:00,34.7,29.8,30.31,ENE,63,0.0,0.0,82,0.00,CLR,,0.00,WeatherDisplay:10.37,2013-03-09 11:50:00,
2013-03-09 07:01:00,35.0,30.1,30.31,ENE,63,0.0,1.0,82,0.00,CLR,,0.00,WeatherDisplay:10.37,2013-03-09 12:01:00,
2013-03-09 07:10:00,35.0,30.1,30.32,ENE,63,0.0,1.0,82,0.00,CLR,,0.00,WeatherDisplay:10.37,2013-03-09 12:10:00,
2013-03-09 07:20:00,35.1,30.5,30.31,ENE,63,0.0,1.0,83,0.00,CLR,,0.00,WeatherDisplay:10.37,2013-03-09 12:20:00,
2013-03-09 07:31:00,35.3,30.7,30.32,ENE,63,0.0,0.0,83,0.00,CLR,,0.00,WeatherDisplay:10.37,2013-03-09 12:31:00,
2013-03-09 07:40:00,35.8,31.1,30.32,ENE,63,0.0,1.0,83,0.00,CLR,,0.00,WeatherDisplay:10.37,2013-03-09 12:40:00,
2013-03-09 07:50:00,36.5,31.5,30.33,ENE,63,0.0,2.0,82,0.00,CLR,,0.00,WeatherDisplay:10.37,2013-03-09 12:50:00,
2013-03-09 08:01:00,36.9,32.3,30.33,ENE,63,0.0,1.0,83,0.00,CLR,,0.00,WeatherDisplay:10.37,2013-03-09 13:01:00,
2013-03-09 08:10:00,37.3,32.0,30.33,ENE,63,0.0,1.0,81,0.00,CLR,,0.00,WeatherDisplay:10.37,2013-03-09 13:10:00,
2013-03-09 08:20:00,37.4,31.5,30.33,ENE,63,0.0,1.0,79,0.00,CLR,,0.00,WeatherDisplay:10.37,2013-03-09 13:20:00,
2013-03-09 08:31:00,38.1,31.2,30.33,ENE,63,0.0,2.0,76,0.00,CLR,,0.00,WeatherDisplay:10.37,2013-03-09 13:31:00,
2013-03-09 08:40:00,39.3,32.4,30.33,ENE,63,0.0,1.0,76,0.00,CLR,,0.00,WeatherDisplay:10.37,2013-03-09 13:40:00,
2013-03-09 08:50:00,40.4,31.8,30.33,ENE,63,0.0,1.0,71,0.00,CLR,,0.00,WeatherDisplay:10.37,2013-03-09 13:50:00,
2013-03-09 09:01:00,41.6,31.8,30.33,ENE,63,0.0,1.0,68,0.00,CLR,,0.00,WeatherDisplay:10.37,2013-03-09 14:01:00,
2013-03-09 09:10:00,43.1,32.1,30.33,SE,129,0.0,4.0,65,0.00,CLR,,0.00,WeatherDisplay:10.37,2013-03-09 14:10:00,
2013-03-09 09:20:00,44.2,32.0,30.33,SE,139,0.0,2.0,62,0.00,CLR,,0.00,WeatherDisplay:10.37,2013-03-09 14:20:00,
2013-03-09 09:31:00,45.1,32.0,30.33,SE,139,2.0,4.0,60,0.00,CLR,,0.00,WeatherDisplay:10.37,2013-03-09 14:31:00,
2013-03-09 09:40:00,46.1,33.0,30.32,SE,139,0.0,4.0,60,0.00,CLR,,0.00,WeatherDisplay:10.37,2013-03-09 14:40:00,
2013-03-09 09:50:00,47.7,32.3,30.32,SE,139,2.0,5.0,55,0.00,CLR,,0.00,WeatherDisplay:10.37,2013-03-09 14:50:00,
2013-03-09 10:01:00,48.8,31.9,30.31,SSE,166,2.0,6.0,52,0.00,CLR,,0.00,WeatherDisplay:10.37,2013-03-09 15:01:00,
2013-03-09 10:10:00,49.6,31.8,30.31,South,169,1.0,12.0,50,0.00,CLR,,0.00,WeatherDisplay:10.37,2013-03-09 15:10:00,
2013-03-09 10:20:00,50.7,31.2,30.31,SSE,149,6.0,15.0,47,0.00,CLR,,0.00,WeatherDisplay:10.37,2013-03-09 15:20:00,
2013-03-09 10:31:00,51.4,30.2,30.31,South,185,5.0,13.0,44,0.00,CLR,,0.00,WeatherDisplay:10.37,2013-03-09 15:31:00,
2013-03-09 10:40:00,52.0,29.6,30.31,SSW,198,3.0,16.0,42,0.00,CLR,,0.00,WeatherDisplay:10.37,2013-03-09 15:40:00,
2013-03-09 10:50:00,52.7,29.7,30.31,SSW,192,8.0,15.0,41,0.00,CLR,,0.00,WeatherDisplay:10.37,2013-03-09 15:50:00,
2013-03-09 11:01:00,53.3,30.2,30.31,South,177,5.0,15.0,41,0.00,CLR,,0.00,WeatherDisplay:10.37,2013-03-09 16:01:00,
2013-03-09 11:10:00,54.3,29.8,30.31,SSE,148,9.0,15.0,39,0.00,CLR,,0.00,WeatherDisplay:10.37,2013-03-09 16:10:00,
2013-03-09 11:20:00,54.7,30.8,30.32,SSW,201,8.0,14.0,40,0.00,CLR,,0.00,WeatherDisplay:10.37,2013-03-09 16:20:00,
2013-03-09 11:31:00,54.2,30.4,30.32,SW,220,6.0,13.0,40,0.00,CLR,,0.00,WeatherDisplay:10.37,2013-03-09 16:31:00,
2013-03-09 11:40:00,54.6,30.7,30.32,SSW,195,6.0,12.0,40,0.00,CLR,,0.00,WeatherDisplay:10.37,2013-03-09 16:40:00,
2013-03-09 11:50:00,54.7,30.8,30.31,SSE,166,7.0,14.0,40,0.00,CLR,,0.00,WeatherDisplay:10.37,2013-03-09 16:50:00,
2013-03-09 12:01:00,55.5,31.6,30.31,South,184,3.0,12.0,40,0.00,CLR,,0.00,WeatherDisplay:10.37,2013-03-09 17:01:00,
2013-03-09 12:10:00,55.8,31.8,30.31,SSW,213,5.0,10.0,40,0.00,CLR,,0.00,WeatherDisplay:10.37,2013-03-09 17:10:00,
2013-03-09 12:20:00,56.4,31.8,30.29,SSE,157,7.0,13.0,39,0.00,CLR,,0.00,WeatherDisplay:10.37,2013-03-09 17:20:00,
2013-03-09 12:31:00,56.9,32.2,30.28,South,177,5.0,12.0,39,0.00,CLR,,0.00,WeatherDisplay:10.37,2013-03-09 17:31:00,
2013-03-09 12:40:00,57.5,31.4,30.28,SSE,153,6.0,13.0,37,0.00,CLR,,0.00,WeatherDisplay:10.37,2013-03-09 17:40:00,
2013-03-09 12:50:00,58.0,31.9,30.27,South,169,7.0,13.0,37,0.00,CLR,,0.00,WeatherDisplay:10.37,2013-03-09 17:50:00,
2013-03-09 13:01:00,58.2,31.3,30.27,South,169,8.0,12.0,36,0.00,CLR,,0.00,WeatherDisplay:10.37,2013-03-09 18:01:00,
2013-03-09 13:10:00,58.2,31.3,30.27,SSW,197,6.0,12.0,36,0.00,CLR,,0.00,WeatherDisplay:10.37,2013-03-09 18:10:00,
2013-03-09 13:20:00,58.0,31.2,30.26,South,169,8.0,14.0,36,0.00,CLR,,0.00,WeatherDisplay:10.37,2013-03-09 18:20:00,
2013-03-09 13:31:00,57.6,31.5,30.25,SSE,168,3.0,14.0,37,0.00,CLR,,0.00,WeatherDisplay:10.37,2013-03-09 18:31:00,
2013-03-09 13:40:00,57.5,30.7,30.25,SSW,196,7.0,12.0,36,0.00,CLR,,0.00,WeatherDisplay:10.37,2013-03-09 18:40:00,
2013-03-09 13:50:00,57.5,30.7,30.25,SSW,201,6.0,9.0,36,0.00,CLR,,0.00,WeatherDisplay:10.37,2013-03-09 18:50:00,
2013-03-09 14:01:00,57.4,31.3,30.25,SW,214,5.0,10.0,37,0.00,CLR,,0.00,WeatherDisplay:10.37,2013-03-09 19:01:00,
2013-03-09 14:10:00,57.4,31.3,30.25,SW,214,5.0,12.0,37,0.00,CLR,,0.00,WeatherDisplay:10.37,2013-03-09 19:10:00,
2013-03-09 14:20:00,57.4,31.3,30.24,SSW,200,7.0,12.0,37,0.00,CLR,,0.00,WeatherDisplay:10.37,2013-03-09 19:20:00,
2013-03-09 14:31:00,57.6,30.8,30.24,SSW,198,7.0,12.0,36,0.00,CLR,,0.00,WeatherDisplay:10.37,2013-03-09 19:31:00,
2013-03-09 14:40:00,58.4,32.2,30.24,South,182,5.0,12.0,37,0.00,CLR,,0.00,WeatherDisplay:10.37,2013-03-09 19:40:00,
2013-03-09 14:50:00,58.6,31.7,30.24,SSW,205,8.0,14.0,36,0.00,CLR,,0.00,WeatherDisplay:10.37,2013-03-09 19:50:00,
2013-03-09 15:01:00,58.5,31.6,30.24,South,185,5.0,12.0,36,0.00,CLR,,0.00,WeatherDisplay:10.37,2013-03-09 20:01:00,
2013-03-09 15:10:00,58.6,31.7,30.24,South,181,6.0,12.0,36,0.00,CLR,,0.00,WeatherDisplay:10.37,2013-03-09 20:10:00,
2013-03-09 15:20:00,58.7,31.8,30.24,South,183,5.0,9.0,36,0.00,CLR,,0.00,WeatherDisplay:10.37,2013-03-09 20:20:00,
2013-03-09 15:31:00,59.0,32.0,30.24,SSW,199,6.0,9.0,36,0.00,CLR,,0.00,WeatherDisplay:10.37,2013-03-09 20:31:00,
2013-03-09 15:40:00,59.0,32.1,30.23,South,186,5.0,9.0,36,0.00,CLR,,0.00,WeatherDisplay:10.37,2013-03-09 20:40:00,
2013-03-09 15:50:00,59.2,31.5,30.23,SSW,210,7.0,12.0,35,0.00,CLR,,0.00,WeatherDisplay:10.37,2013-03-09 20:50:00,
2013-03-09 16:01:00,59.2,32.2,30.23,SSW,213,3.0,8.0,36,0.00,CLR,,0.00,WeatherDisplay:10.37,2013-03-09 21:01:00,
2013-03-09 16:10:00,59.2,32.2,30.23,South,173,3.0,8.0,36,0.00,CLR,,0.00,WeatherDisplay:10.37,2013-03-09 21:10:00,
2013-03-09 16:20:00,59.2,32.2,30.23,South,173,5.0,12.0,36,0.00,CLR,,0.00,WeatherDisplay:10.37,2013-03-09 21:20:00,
2013-03-09 16:31:00,59.3,32.3,30.23,South,169,5.0,8.0,36,0.00,CLR,,0.00,WeatherDisplay:10.37,2013-03-09 21:31:00,
2013-03-09 16:40:00,59.3,31.6,30.22,South,187,6.0,12.0,35,0.00,CLR,,0.00,WeatherDisplay:10.37,2013-03-09 21:40:00,
2013-03-09 16:50:00,59.3,32.3,30.22,SSE,160,6.0,10.0,36,0.00,CLR,,0.00,WeatherDisplay:10.37,2013-03-09 21:50:00,
2013-03-09 17:01:00,59.3,32.3,30.22,South,173,6.0,10.0,36,0.00,CLR,,0.00,WeatherDisplay:10.37,2013-03-09 22:01:00,
2013-03-09 17:10:00,59.2,33.0,30.22,South,180,1.0,8.0,37,0.00,CLR,,0.00,WeatherDisplay:10.37,2013-03-09 22:10:00,
2013-03-09 17:20:00,59.2,32.9,30.22,South,172,3.0,8.0,37,0.00,CLR,,0.00,WeatherDisplay:10.37,2013-03-09 22:20:00,
2013-03-09 17:31:00,59.1,32.2,30.21,South,172,2.0,9.0,36,0.00,CLR,,0.00,WeatherDisplay:10.37,2013-03-09 22:31:00,
2013-03-09 17:40:00,59.0,32.7,30.21,SSE,164,1.0,9.0,37,0.00,CLR,,0.00,WeatherDisplay:10.37,2013-03-09 22:40:00,
2013-03-09 17:50:00,58.9,32.7,30.21,South,180,3.0,10.0,37,0.00,CLR,,0.00,WeatherDisplay:10.37,2013-03-09 22:50:00,
2013-03-09 18:01:00,58.8,32.6,30.21,South,181,2.0,12.0,37,0.00,CLR,,0.00,WeatherDisplay:10.37,2013-03-09 23:01:00,
2013-03-09 18:10:00,58.6,33.0,30.21,SSE,166,2.0,12.0,38,0.00,CLR,,0.00,WeatherDisplay:10.37,2013-03-09 23:10:00,
2013-03-09 18:20:00,58.5,32.9,30.21,South,172,5.0,8.0,38,0.00,CLR,,0.00,WeatherDisplay:10.37,2013-03-09 23:20:00,
2013-03-09 18:31:00,58.3,32.8,30.21,South,178,3.0,8.0,38,0.00,CLR,,0.00,WeatherDisplay:10.37,2013-03-09 23:31:00,
2013-03-09 18:40:00,58.1,33.2,30.21,South,182,2.0,7.0,39,0.00,CLR,,0.00,WeatherDisplay:10.37,2013-03-09 23:40:00,
2013-03-09 18:50:00,57.8,33.0,30.21,SSW,199,3.0,7.0,39,0.00,CLR,,0.00,WeatherDisplay:10.37,2013-03-09 23:50:00,
2013-03-09 19:01:00,57.7,33.5,30.21,SSW,200,3.0,9.0,40,0.00,CLR,,0.00,WeatherDisplay:10.37,2013-03-10 00:01:00,
2013-03-09 19:10:00,57.4,33.3,30.21,SSW,209,2.0,6.0,40,0.00,CLR,,0.00,WeatherDisplay:10.37,2013-03-10 00:10:00,
2013-03-09 19:20:00,57.1,33.6,30.21,SW,218,2.0,4.0,41,0.00,CLR,,0.00,WeatherDisplay:10.37,2013-03-10 00:20:00,
2013-03-09 19:31:00,56.7,33.9,30.21,SW,226,1.0,4.0,42,0.00,CLR,,0.00,WeatherDisplay:10.37,2013-03-10 00:31:00,
2013-03-09 19:40:00,56.3,34.1,30.22,SW,220,1.0,5.0,43,0.00,CLR,,0.00,WeatherDisplay:10.37,2013-03-10 00:40:00,
2013-03-09 19:50:00,56.3,34.1,30.22,SSW,196,0.0,6.0,43,0.00,CLR,,0.00,WeatherDisplay:10.37,2013-03-10 00:50:00,
2013-03-09 20:01:00,56.2,34.0,30.22,SSW,201,2.0,6.0,43,0.00,CLR,,0.00,WeatherDisplay:10.37,2013-03-10 01:01:00,
2013-03-09 20:10:00,55.9,34.3,30.22,SSW,206,1.0,4.0,44,0.00,CLR,,0.00,WeatherDisplay:10.37,2013-03-10 01:10:00,
2013-03-09 20:20:00,55.7,34.1,30.21,SSW,193,1.0,6.0,44,0.00,CLR,,0.00,WeatherDisplay:10.37,2013-03-10 01:20:00,
2013-03-09 20:31:00,55.4,33.8,30.21,SSW,201,0.0,4.0,44,0.00,CLR,,0.00,WeatherDisplay:10.37,2013-03-10 01:31:00,
2013-03-09 20:40:00,55.1,34.1,30.21,South,190,1.0,3.0,45,0.00,CLR,,0.00,WeatherDisplay:10.37,2013-03-10 01:40:00,
2013-03-09 20:50:00,54.7,33.8,30.20,SW,225,1.0,3.0,45,0.00,CLR,,0.00,WeatherDisplay:10.37,2013-03-10 01:50:00,
2013-03-09 21:01:00,54.3,33.9,30.20,SW,230,2.0,3.0,46,0.00,CLR,,0.00,WeatherDisplay:10.37,2013-03-10 02:01:00,
2013-03-09 21:10:00,54.2,34.4,30.20,SW,229,1.0,4.0,47,0.00,CLR,,0.00,WeatherDisplay:10.37,2013-03-10 02:10:00,
2013-03-09 21:20:00,54.1,34.3,30.21,SW,229,2.0,5.0,47,0.00,CLR,,0.00,WeatherDisplay:10.37,2013-03-10 02:20:00,
2013-03-09 21:31:00,53.9,34.1,30.21,SW,226,2.0,5.0,47,0.00,CLR,,0.00,WeatherDisplay:10.37,2013-03-10 02:31:00,
2013-03-09 21:40:00,54.1,33.7,30.20,SW,230,2.0,3.0,46,0.00,CLR,,0.00,WeatherDisplay:10.37,2013-03-10 02:40:00,
2013-03-09 21:50:00,54.1,34.3,30.20,SW,232,1.0,5.0,47,0.00,CLR,,0.00,WeatherDisplay:10.37,2013-03-10 02:50:00,
2013-03-09 22:01:00,54.0,34.2,30.20,WSW,237,2.0,6.0,47,0.00,CLR,,0.00,WeatherDisplay:10.37,2013-03-10 03:01:00,
2013-03-09 22:10:00,53.9,34.1,30.20,WSW,242,3.0,5.0,47,0.00,CLR,,0.00,WeatherDisplay:10.37,2013-03-10 03:10:00,
2013-03-09 22:20:00,54.0,34.2,30.20,WSW,252,3.0,7.0,47,0.00,CLR,,0.00,WeatherDisplay:10.37,2013-03-10 03:20:00,
2013-03-09 22:31:00,54.0,34.2,30.20,SW,228,2.0,5.0,47,0.00,CLR,,0.00,WeatherDisplay:10.37,2013-03-10 03:31:00,
2013-03-09 22:40:00,54.2,34.4,30.20,WSW,238,3.0,8.0,47,0.00,CLR,,0.00,WeatherDisplay:10.37,2013-03-10 03:40:00,
2013-03-09 22:50:00,54.1,34.3,30.20,SW,227,2.0,6.0,47,0.00,CLR,,0.00,WeatherDisplay:10.37,2013-03-10 03:50:00,
2013-03-09 23:01:00,54.1,34.3,30.20,SW,217,1.0,7.0,47,0.00,CLR,,0.00,WeatherDisplay:10.37,2013-03-10 04:01:00,
2013-03-09 23:10:00,54.1,34.3,30.19,SW,228,2.0,6.0,47,0.00,CLR,,0.00,WeatherDisplay:10.37,2013-03-10 04:10:00,
2013-03-09 23:20:00,53.9,34.1,30.19,SW,215,3.0,7.0,47,0.00,CLR,,0.00,WeatherDisplay:10.37,2013-03-10 04:20:00,
2013-03-09 23:31:00,54.1,34.3,30.19,SW,229,2.0,7.0,47,0.00,CLR,,0.00,WeatherDisplay:10.37,2013-03-10 04:31:00,
2013-03-09 23:40:00,54.1,34.3,30.19,SW,219,1.0,5.0,47,0.00,CLR,,0.00,WeatherDisplay:10.37,2013-03-10 04:40:00,
2013-03-09 23:50:00,54.0,34.2,30.19,SW,231,2.0,4.0,47,0.00,CLR,,0.00,WeatherDisplay:10.37,2013-03-10 04:50:00,